createdAt,value
2022-09-03T00:01:19.584Z,98004.60
2022-09-03T00:03:52.556Z,98004.91
2022-09-03T00:06:28.620Z,98002.00
2022-09-03T00:09:02.184Z,97999.92
2022-09-03T00:11:37.961Z,98000.59
2022-09-03T00:14:10.544Z,97998.36
2022-09-03T00:16:44.605Z,98000.86
2022-09-03T00:19:19.225Z,97999.73
2022-09-03T00:21:52.492Z,98004.10
2022-09-03T00:24:26.368Z,98005.80
2022-09-03T00:27:01.286Z,98001.81
2022-09-03T00:29:34.161Z,98003.33
2022-09-03T00:32:04.870Z,98004.64
2022-09-03T00:34:41.354Z,98005.20
2022-09-03T00:37:15.486Z,98001.73
2022-09-03T00:39:46.159Z,98002.92
2022-09-03T00:42:34.637Z,98003.92
2022-09-03T00:45:14.352Z,98000.11
2022-09-03T00:47:54.044Z,97998.52
2022-09-03T00:50:32.069Z,97997.66
2022-09-03T00:53:09.969Z,97999.72
2022-09-03T00:55:47.546Z,97997.60
2022-09-03T00:58:30.761Z,98000.52
2022-09-03T01:01:01.568Z,97998.86
2022-09-03T01:03:40.152Z,97994.35
2022-09-03T01:06:20.093Z,98000.64
2022-09-03T01:09:02.870Z,97999.39
2022-09-03T01:11:45.373Z,97998.07
2022-09-03T01:14:21.870Z,98000.55
2022-09-03T01:16:57.196Z,98000.14
2022-09-03T01:19:55.392Z,97997.88
2022-09-03T01:22:44.867Z,97992.70
2022-09-03T01:25:32.158Z,97994.81
2022-09-03T01:28:13.462Z,97988.25
2022-09-03T01:30:49.258Z,97985.52
2022-09-03T01:33:27.221Z,97992.38
2022-09-03T01:36:03.337Z,97993.15
2022-09-03T01:38:38.624Z,97992.77
2022-09-03T01:41:35.914Z,97986.34
2022-09-03T01:44:15.677Z,97990.05
2022-09-03T01:46:46.794Z,97982.94
2022-09-03T01:49:22.713Z,97986.47
2022-09-03T01:52:00.366Z,97983.23
2022-09-03T01:54:50.428Z,97985.24
2022-09-03T01:57:39.348Z,97981.52
2022-09-03T02:00:13.814Z,97982.23
2022-09-03T02:02:47.896Z,97982.18
2022-09-03T02:05:20.477Z,97975.11
2022-09-03T02:08:04.472Z,97974.92
2022-09-03T02:10:41.920Z,97976.91
2022-09-03T02:13:14.885Z,97979.39
2022-09-03T02:15:45.772Z,97982.64
2022-09-03T02:18:20.761Z,97992.88
2022-09-03T02:20:51.344Z,97985.58
2022-09-03T02:23:24.597Z,97979.83
2022-09-03T02:26:01.515Z,97985.59
2022-09-03T02:28:32.989Z,97989.64
2022-09-03T02:31:03.755Z,97987.04
2022-09-03T02:33:36.684Z,97982.61
2022-09-03T02:36:06.827Z,97987.48
2022-09-03T02:38:37.508Z,97987.41
2022-09-03T02:41:08.205Z,97987.85
2022-09-03T02:43:43.412Z,97983.77
2022-09-03T02:46:19.857Z,97987.27
2022-09-03T02:48:50.204Z,97986.08
2022-09-03T02:51:20.541Z,97987.60
2022-09-03T02:53:50.908Z,97986.13
2022-09-03T02:56:27.878Z,97982.75
2022-09-03T02:58:58.401Z,97982.75
2022-09-03T03:01:28.899Z,97984.05
2022-09-03T03:04:03.066Z,97980.55
2022-09-03T03:06:33.410Z,97976.05
2022-09-03T03:09:05.819Z,97976.08
2022-09-03T03:11:36.997Z,97975.09
2022-09-03T03:14:07.606Z,97973.27
2022-09-03T03:16:38.056Z,97972.64
2022-09-03T03:19:08.458Z,97974.46
2022-09-03T03:21:38.943Z,97974.38
2022-09-03T03:24:10.054Z,97975.52
2022-09-03T03:26:40.909Z,97974.60
2022-09-03T03:29:17.780Z,97972.52
2022-09-03T03:31:48.114Z,97975.80
2022-09-03T03:34:18.511Z,97971.28
2022-09-03T03:36:48.891Z,97970.30
2022-09-03T03:39:20.246Z,97971.16
2022-09-03T03:41:52.441Z,97970.83
2022-09-03T03:44:22.794Z,97970.16
2022-09-03T03:46:53.577Z,97969.52
2022-09-03T03:49:23.877Z,97965.90
2022-09-03T03:51:54.466Z,97964.73
2022-09-03T03:54:24.773Z,97970.40
2022-09-03T03:56:55.681Z,97965.76
2022-09-03T03:59:26.279Z,97965.35
2022-09-03T04:01:58.163Z,97962.46
2022-09-03T04:04:28.500Z,97958.19
2022-09-03T04:06:58.855Z,97957.23
2022-09-03T04:09:29.306Z,97954.32
2022-09-03T04:11:59.691Z,97954.56
2022-09-03T04:14:30.211Z,97953.44
2022-09-03T04:17:00.682Z,97950.15
2022-09-03T04:19:31.198Z,97945.70
2022-09-03T04:22:01.537Z,97947.84
2022-09-03T04:24:32.353Z,97950.56
2022-09-03T04:27:02.683Z,97948.92
2022-09-03T04:29:33.155Z,97950.18
2022-09-03T04:32:21.698Z,97950.61
2022-09-03T04:34:51.995Z,97951.59
2022-09-03T04:37:22.312Z,97948.78
2022-09-03T04:39:54.192Z,97952.25
2022-09-03T04:42:24.587Z,97953.84
2022-09-03T04:44:54.890Z,97960.06
2022-09-03T04:47:25.330Z,97963.16
2022-09-03T04:49:55.785Z,97961.98
2022-09-03T04:52:29.931Z,97960.64
2022-09-03T04:55:00.832Z,97962.86
2022-09-03T04:57:34.392Z,97959.77
2022-09-03T05:00:05.417Z,97958.56
2022-09-03T05:02:35.837Z,97958.74
2022-09-03T05:05:09.029Z,97960.15
2022-09-03T05:07:39.608Z,97959.77
2022-09-03T05:10:16.194Z,97955.16
2022-09-03T05:12:46.621Z,97958.71
2022-09-03T05:15:17.083Z,97957.90
2022-09-03T05:17:47.714Z,97958.11
2022-09-03T05:20:18.325Z,97960.96
2022-09-03T05:22:49.165Z,97964.48
2022-09-03T05:25:19.547Z,97967.16
2022-09-03T05:27:49.930Z,97967.52
2022-09-03T05:30:22.730Z,97972.17
2022-09-03T05:32:51.973Z,97975.16
2022-09-03T05:35:25.915Z,97977.09
2022-09-03T05:38:00.767Z,97975.17
2022-09-03T05:40:32.038Z,97973.98
2022-09-03T05:43:06.523Z,97980.27
2022-09-03T05:45:39.266Z,97984.48
2022-09-03T05:48:09.664Z,97991.01
2022-09-03T05:50:40.047Z,97988.60
2022-09-03T05:53:10.384Z,97988.88
2022-09-03T05:55:40.679Z,97991.94
2022-09-03T05:58:11.193Z,97993.16
2022-09-03T06:00:41.802Z,97994.48
2022-09-03T06:03:12.511Z,97994.27
2022-09-03T06:05:42.865Z,97994.73
2022-09-03T06:08:16.240Z,97996.21
2022-09-03T06:10:46.557Z,97999.73
2022-09-03T06:13:16.859Z,98009.70
2022-09-03T06:15:47.251Z,98010.73
2022-09-03T06:18:17.575Z,98010.27
2022-09-03T06:20:56.503Z,98013.06
2022-09-03T06:23:27.230Z,98013.91
2022-09-03T06:26:05.578Z,98014.50
2022-09-03T06:28:37.908Z,98016.63
2022-09-03T06:31:10.046Z,98013.66
2022-09-03T06:33:42.519Z,98014.59
2022-09-03T06:36:14.497Z,98017.05
2022-09-03T06:38:45.603Z,98015.02
2022-09-03T06:41:18.791Z,98018.23
2022-09-03T06:43:50.395Z,98016.20
2022-09-03T06:46:22.556Z,98012.44
2022-09-03T06:48:54.950Z,98008.70
2022-09-03T06:51:27.032Z,98005.23
2022-09-03T06:54:03.451Z,98009.41
2022-09-03T06:56:39.495Z,98009.55
2022-09-03T06:59:12.424Z,98015.06
2022-09-03T07:01:45.481Z,98011.50
2022-09-03T07:04:20.236Z,98011.61
2022-09-03T07:06:50.798Z,98008.40
2022-09-03T07:09:21.162Z,98008.72
2022-09-03T07:11:51.419Z,98010.55
2022-09-03T07:14:22.572Z,98014.61
2022-09-03T07:16:52.963Z,98014.23
2022-09-03T07:19:23.476Z,98020.36
2022-09-03T07:21:53.780Z,98021.66
2022-09-03T07:24:24.219Z,98023.95
2022-09-03T07:26:54.899Z,98025.92
2022-09-03T07:29:25.204Z,98026.70
2022-09-03T07:31:56.280Z,98029.48
2022-09-03T07:34:27.053Z,98031.74
2022-09-03T07:36:57.517Z,98026.96
2022-09-03T07:39:27.917Z,98030.39
2022-09-03T07:41:59.513Z,98027.29
2022-09-03T07:44:31.011Z,98030.79
2022-09-03T07:47:01.409Z,98032.46
2022-09-03T07:49:31.930Z,98033.88
2022-09-03T07:52:02.969Z,98031.98
2022-09-03T07:54:33.326Z,98027.79
2022-09-03T07:57:03.593Z,98027.52
2022-09-03T07:59:34.020Z,98026.16
2022-09-03T08:02:05.952Z,98026.05
2022-09-03T08:04:36.263Z,98030.02
2022-09-03T08:07:06.721Z,98031.27
2022-09-03T08:09:37.000Z,98032.02
2022-09-03T08:12:08.058Z,98039.52
2022-09-03T08:14:38.836Z,98040.15
2022-09-03T08:17:09.979Z,98045.84
2022-09-03T08:19:41.022Z,98042.53
2022-09-03T08:22:11.538Z,98040.36
2022-09-03T08:24:42.552Z,98041.99
2022-09-03T08:27:12.806Z,98045.08
2022-09-03T08:29:43.439Z,98047.48
2022-09-03T08:32:14.303Z,98049.29
2022-09-03T08:34:44.657Z,98046.96
2022-09-03T08:37:14.965Z,98045.86
2022-09-03T08:39:45.433Z,98036.11
2022-09-03T08:42:28.344Z,98034.27
2022-09-03T08:44:58.583Z,98037.20
2022-09-03T08:47:32.832Z,98038.23
2022-09-03T08:50:06.681Z,98042.30
2022-09-03T08:52:42.602Z,98042.73
2022-09-03T08:55:21.857Z,98046.46
2022-09-03T08:57:54.831Z,98054.81
2022-09-03T09:00:25.218Z,98049.82
2022-09-03T09:03:07.523Z,98054.20
2022-09-03T09:05:45.248Z,98053.05
2022-09-03T09:08:22.331Z,98056.84
2022-09-03T09:11:02.809Z,98059.34
2022-09-03T09:13:38.783Z,98058.87
2022-09-03T09:16:14.508Z,98058.11
2022-09-03T09:18:57.707Z,98059.13
2022-09-03T09:21:31.222Z,98066.11
2022-09-03T09:24:04.319Z,98063.91
2022-09-03T09:26:36.020Z,98066.16
2022-09-03T09:29:10.070Z,98074.33
2022-09-03T09:31:45.071Z,98073.98
2022-09-03T09:34:15.548Z,98070.59
2022-09-03T09:36:50.491Z,98064.79
2022-09-03T09:39:21.148Z,98058.96
2022-09-03T09:42:05.430Z,98057.80
2022-09-03T09:44:35.800Z,98062.76
2022-09-03T09:47:08.860Z,98063.92
2022-09-03T09:49:50.443Z,98073.38
2022-09-03T09:52:22.111Z,98078.23
2022-09-03T09:54:53.052Z,98075.73
2022-09-03T09:57:26.509Z,98070.80
2022-09-03T10:00:10.545Z,98079.34
2022-09-03T10:02:50.183Z,98083.40
2022-09-03T10:05:23.532Z,98082.39
2022-09-03T10:08:01.269Z,98085.67
2022-09-03T10:10:35.008Z,98077.95
2022-09-03T10:13:11.074Z,98078.81
2022-09-03T10:15:46.555Z,98073.69
2022-09-03T10:18:28.506Z,98077.51
2022-09-03T10:21:06.221Z,98078.10
2022-09-03T10:23:50.348Z,98073.94
2022-09-03T10:26:29.258Z,98077.16
2022-09-03T10:29:05.711Z,98074.03
2022-09-03T10:31:48.644Z,98073.52
2022-09-03T10:34:24.519Z,98071.91
2022-09-03T10:37:01.503Z,98057.58
2022-09-03T10:39:43.325Z,98057.48
2022-09-03T10:42:21.852Z,98053.98
2022-09-03T10:45:01.775Z,98055.08
2022-09-03T10:47:56.379Z,98061.74
2022-09-03T10:50:30.216Z,98064.02
2022-09-03T10:53:12.531Z,98060.02
2022-09-03T10:55:51.640Z,98065.17
2022-09-03T10:58:38.231Z,98067.36
2022-09-03T11:01:15.554Z,98066.05
2022-09-03T11:03:51.224Z,98069.14
2022-09-03T11:06:24.638Z,98067.45
2022-09-03T11:09:03.121Z,98067.57
2022-09-03T11:11:39.268Z,98067.06
2022-09-03T11:14:11.855Z,98067.51
2022-09-03T11:16:46.480Z,98063.35
2022-09-03T11:19:19.525Z,98060.71
2022-09-03T11:21:50.853Z,98054.47
2022-09-03T11:24:24.136Z,98057.14
2022-09-03T11:26:59.871Z,98059.89
2022-09-03T11:29:37.208Z,98059.77
2022-09-03T11:32:11.754Z,98057.16
2022-09-03T11:34:49.783Z,98051.62
2022-09-03T11:37:23.505Z,98053.65
2022-09-03T11:39:59.825Z,98049.98
2022-09-03T11:42:33.790Z,98049.30
2022-09-03T11:45:21.188Z,98051.86
2022-09-03T11:47:52.184Z,98055.73
2022-09-03T11:50:25.695Z,98051.60
2022-09-03T11:53:10.537Z,98050.23
2022-09-03T11:55:54.244Z,98049.61
2022-09-03T11:58:27.901Z,98049.85
2022-09-03T12:00:59.252Z,98049.10
2022-09-03T12:03:31.421Z,98050.73
2022-09-03T12:06:09.946Z,98049.28
2022-09-03T12:09:05.737Z,98042.44
2022-09-03T12:11:45.665Z,98036.95
2022-09-03T12:14:23.708Z,98031.52
2022-09-03T12:17:10.108Z,98027.35
2022-09-03T12:19:43.357Z,98021.12
2022-09-03T12:22:17.589Z,98027.49
2022-09-03T12:24:48.112Z,98021.98
2022-09-03T12:27:24.621Z,98018.34
2022-09-03T12:30:00.572Z,98006.64
2022-09-03T12:32:37.032Z,98007.16
2022-09-03T12:35:58.436Z,98005.67
2022-09-03T12:38:09.520Z,98007.86
2022-09-03T12:43:39.372Z,98005.12
2022-09-03T12:46:17.318Z,97999.08
2022-09-03T12:51:49.942Z,97999.59
2022-09-03T12:54:23.597Z,98000.56
2022-09-03T12:56:58.350Z,98004.51
2022-09-03T12:59:30.777Z,98002.80
2022-09-03T13:02:07.186Z,97997.02
2022-09-03T13:04:38.987Z,97998.33
2022-09-03T13:07:14.151Z,97995.24
2022-09-03T13:09:46.868Z,97999.61
2022-09-03T13:12:33.523Z,98005.30
2022-09-03T13:15:20.996Z,98006.26
2022-09-03T13:18:22.173Z,98003.77
2022-09-03T13:21:05.230Z,98005.75
2022-09-03T13:23:51.190Z,98003.17
2022-09-03T13:26:28.947Z,98004.27
2022-09-03T13:29:18.209Z,98007.73
2022-09-03T13:31:54.336Z,98009.22
2022-09-03T13:34:32.362Z,98009.02
2022-09-03T13:37:14.210Z,98006.77
2022-09-03T13:39:45.855Z,98008.13
2022-09-03T13:42:20.463Z,98011.83
2022-09-03T13:44:58.546Z,98008.66
2022-09-03T13:47:36.247Z,98005.31
2022-09-03T13:50:26.943Z,98001.64
2022-09-03T13:53:01.256Z,98008.98
2022-09-03T13:55:37.827Z,98012.48
2022-09-03T13:58:12.663Z,98010.89
2022-09-03T14:00:47.857Z,98011.57
2022-09-03T14:03:29.338Z,98008.94
2022-09-03T14:06:09.589Z,98013.31
2022-09-03T14:13:15.237Z,98011.45
2022-09-03T14:15:49.584Z,98011.45
2022-09-03T14:18:29.467Z,98006.05
2022-09-03T14:21:02.918Z,98004.08
2022-09-03T14:23:37.499Z,98001.34
2022-09-03T14:26:16.179Z,98002.23
2022-09-03T14:28:50.357Z,98004.84
2022-09-03T14:31:30.434Z,98005.48
2022-09-03T14:34:08.320Z,98008.48
2022-09-03T14:36:44.910Z,98008.95
2022-09-03T14:39:34.369Z,98012.15
2022-09-03T14:42:28.417Z,98008.79
2022-09-03T14:45:14.289Z,98008.27
2022-09-03T14:47:55.516Z,98008.98
2022-09-03T14:50:35.595Z,98007.02
2022-09-03T14:53:18.628Z,98000.28
2022-09-03T14:56:09.369Z,97998.93
2022-09-03T14:58:53.986Z,97993.73
2022-09-03T15:01:38.861Z,97994.81
2022-09-03T15:04:38.720Z,97998.11
2022-09-03T15:07:19.734Z,98001.55
2022-09-03T15:10:02.465Z,98000.47
2022-09-03T15:12:38.417Z,97993.02
2022-09-03T15:15:14.101Z,97995.31
2022-09-03T15:17:52.053Z,97993.46
2022-09-03T15:20:31.305Z,97993.77
2022-09-03T15:23:13.232Z,97990.86
2022-09-03T15:25:55.245Z,97988.69
2022-09-03T15:28:34.236Z,97987.47
2022-09-03T15:31:14.029Z,97984.52
2022-09-03T15:33:51.388Z,97985.27
2022-09-03T15:36:23.417Z,97983.66
2022-09-03T15:38:58.303Z,97981.23
2022-09-03T15:41:35.669Z,97985.16
2022-09-03T15:44:10.249Z,97990.05
2022-09-03T15:46:56.599Z,97994.86
2022-09-03T15:49:37.954Z,97999.90
2022-09-03T15:52:30.097Z,98003.45
2022-09-03T15:55:08.672Z,98008.98
2022-09-03T15:57:46.518Z,98013.39
2022-09-03T16:00:21.500Z,98017.08
2022-09-03T16:02:57.839Z,98017.89
2022-09-03T16:05:39.301Z,98021.94
2022-09-03T16:08:20.891Z,98021.55
2022-09-03T16:10:59.050Z,98022.77
2022-09-03T16:13:41.755Z,98017.70
2022-09-03T16:16:14.749Z,98018.54
2022-09-03T16:18:49.998Z,98011.36
2022-09-03T16:21:27.623Z,98009.85
2022-09-03T16:24:01.756Z,98007.13
2022-09-03T16:26:35.857Z,98009.30
2022-09-03T16:29:12.681Z,98010.23
2022-09-03T16:31:52.969Z,98013.97
2022-09-03T16:34:29.920Z,98014.34
2022-09-03T16:37:08.672Z,98012.61
2022-09-03T16:39:47.342Z,98011.48
2022-09-03T16:42:25.762Z,98011.90
2022-09-03T16:45:05.544Z,98015.93
2022-09-03T16:47:45.814Z,98019.61
2022-09-03T16:50:27.964Z,98022.63
2022-09-03T16:53:05.787Z,98024.40
2022-09-03T16:55:48.955Z,98024.02
2022-09-03T16:58:23.174Z,98023.66
2022-09-03T17:01:06.694Z,98025.34
2022-09-03T17:04:00.838Z,98026.61
2022-09-03T17:06:50.409Z,98031.45
2022-09-03T17:09:31.795Z,98029.52
2022-09-03T17:12:08.169Z,98027.90
2022-09-03T17:15:01.393Z,98030.20
2022-09-03T17:17:34.656Z,98031.84
2022-09-03T17:20:10.273Z,98026.26
2022-09-03T17:22:51.089Z,98027.05
2022-09-03T17:25:29.145Z,98027.98
2022-09-03T17:28:09.369Z,98031.25
2022-09-03T17:30:42.798Z,98028.51
2022-09-03T17:33:40.013Z,98028.70
2022-09-03T17:36:14.412Z,98027.56
2022-09-03T17:39:15.541Z,98029.59
2022-09-03T17:41:49.829Z,98026.75
2022-09-03T17:44:29.324Z,98026.16
2022-09-03T17:47:08.905Z,98025.90
2022-09-03T17:49:48.984Z,98026.47
2022-09-03T17:52:29.652Z,98025.80
2022-09-03T17:55:03.808Z,98027.56
2022-09-03T17:57:41.222Z,98024.65
2022-09-03T18:00:14.997Z,98024.66
2022-09-03T18:02:53.917Z,98025.73
2022-09-03T18:05:27.430Z,98030.79
2022-09-03T18:08:02.006Z,98029.15
2022-09-03T18:10:35.389Z,98029.69
2022-09-03T18:13:13.976Z,98026.15
2022-09-03T18:15:52.928Z,98031.70
2022-09-03T18:18:29.459Z,98031.38
2022-09-03T18:21:26.395Z,98034.34
2022-09-03T18:24:19.142Z,98042.27
2022-09-03T18:27:11.382Z,98050.10
2022-09-03T18:30:05.785Z,98060.47
2022-09-03T18:32:53.544Z,98068.30
2022-09-03T18:35:41.508Z,98078.68
2022-09-03T18:38:30.669Z,98085.60
2022-09-03T18:41:24.828Z,98099.04
2022-09-03T18:44:19.532Z,98098.67
2022-09-03T18:50:26.192Z,98104.49
2022-09-03T18:53:18.102Z,98110.55
2022-09-03T18:56:16.080Z,98113.72
2022-09-03T18:59:16.667Z,98120.92
2022-09-03T19:02:04.532Z,98122.56
2022-09-03T19:05:04.226Z,98131.06
2022-09-03T19:08:01.503Z,98133.26
2022-09-03T19:10:55.749Z,98134.98
2022-09-03T19:13:50.179Z,98133.55
2022-09-03T19:16:42.877Z,98138.42
2022-09-03T19:20:03.642Z,98140.00
2022-09-03T19:22:53.736Z,98136.88
2022-09-03T19:25:42.509Z,98141.49
2022-09-03T19:28:36.545Z,98142.05
2022-09-03T19:31:35.334Z,98144.84
2022-09-03T19:34:31.161Z,98145.95
2022-09-03T19:37:23.042Z,98151.13
2022-09-03T19:40:22.210Z,98149.55
2022-09-03T19:43:17.250Z,98149.59
2022-09-03T19:46:17.942Z,98152.04
2022-09-03T19:49:14.782Z,98151.86
2022-09-03T19:52:08.688Z,98154.56
2022-09-03T19:54:57.477Z,98154.42
2022-09-03T19:57:45.922Z,98158.11
2022-09-03T20:00:34.372Z,98158.02
2022-09-03T20:03:24.037Z,98161.31
2022-09-03T20:06:12.120Z,98162.38
2022-09-03T20:08:59.892Z,98162.61
2022-09-03T20:11:32.097Z,98162.64
2022-09-03T20:14:14.259Z,98167.27
2022-09-03T20:16:52.965Z,98173.29
2022-09-03T20:19:30.390Z,98171.85
2022-09-03T20:22:08.986Z,98172.54
2022-09-03T20:24:45.854Z,98174.98
2022-09-03T20:27:24.871Z,98175.30
2022-09-03T20:30:00.952Z,98178.58
2022-09-03T20:33:00.035Z,98179.67
2022-09-03T20:35:40.228Z,98185.84
2022-09-03T20:38:24.833Z,98183.09
2022-09-03T20:41:01.420Z,98188.04
2022-09-03T20:43:46.204Z,98192.80
2022-09-03T20:46:30.930Z,98191.02
2022-09-03T20:49:08.875Z,98196.41
2022-09-03T20:51:43.105Z,98195.07
2022-09-03T20:54:17.017Z,98192.53
2022-09-03T20:56:56.166Z,98191.35
2022-09-03T20:59:34.909Z,98189.60
2022-09-03T21:02:12.598Z,98190.20
2022-09-03T21:04:52.351Z,98197.36
2022-09-03T21:07:37.489Z,98197.63
2022-09-03T21:10:16.820Z,98200.55
2022-09-03T21:12:51.715Z,98201.25
2022-09-03T21:15:29.828Z,98202.96
2022-09-03T21:18:07.727Z,98201.81
2022-09-03T21:20:47.599Z,98199.02
2022-09-03T21:23:23.036Z,98197.35
2022-09-03T21:25:58.443Z,98196.09
2022-09-03T21:28:32.565Z,98193.42
2022-09-03T21:31:06.258Z,98196.91
2022-09-03T21:33:40.441Z,98195.35
2022-09-03T21:36:14.999Z,98197.82
2022-09-03T21:38:50.200Z,98194.95
2022-09-03T21:41:25.011Z,98198.60
2022-09-03T21:43:59.975Z,98200.20
2022-09-03T21:46:36.298Z,98201.60
2022-09-03T21:49:18.282Z,98202.80
2022-09-03T21:51:53.386Z,98205.70
2022-09-03T21:54:28.187Z,98206.53
2022-09-03T21:57:22.223Z,98211.58
2022-09-03T22:00:02.880Z,98213.92
2022-09-03T22:02:43.150Z,98216.34
2022-09-03T22:05:13.877Z,98220.81
2022-09-03T22:07:55.370Z,98219.63
2022-09-03T22:10:29.612Z,98226.95
2022-09-03T22:13:14.570Z,98230.05
2022-09-03T22:15:50.558Z,98229.33
2022-09-03T22:18:28.926Z,98229.89
2022-09-03T22:21:13.048Z,98226.44
2022-09-03T22:23:55.460Z,98226.32
2022-09-03T22:26:37.479Z,98228.35
2022-09-03T22:29:17.979Z,98223.48
2022-09-03T22:31:58.405Z,98225.02
2022-09-03T22:34:39.167Z,98225.83
2022-09-03T22:37:15.600Z,98222.67
2022-09-03T22:39:48.230Z,98227.02
2022-09-03T22:42:42.431Z,98227.95
2022-09-03T22:45:23.950Z,98222.79
2022-09-03T22:48:07.513Z,98226.76
2022-09-03T22:50:43.547Z,98228.95
2022-09-03T22:53:23.175Z,98223.71
2022-09-03T22:55:59.950Z,98225.19
2022-09-03T22:58:32.363Z,98226.05
2022-09-03T23:01:07.966Z,98227.20
2022-09-03T23:03:42.967Z,98229.20
2022-09-03T23:06:18.627Z,98231.21
2022-09-03T23:08:53.481Z,98234.74
2022-09-03T23:11:27.638Z,98232.38
2022-09-03T23:14:01.505Z,98238.79
2022-09-03T23:16:37.718Z,98239.05
2022-09-03T23:21:56.677Z,98242.69
2022-09-03T23:24:32.241Z,98240.90
2022-09-03T23:27:06.499Z,98243.63
2022-09-03T23:29:41.369Z,98247.16
2022-09-03T23:32:11.814Z,98245.98
2022-09-03T23:34:42.261Z,98249.70
2022-09-03T23:37:34.271Z,98250.37
2022-09-03T23:40:21.018Z,98255.90
2022-09-03T23:43:05.492Z,98257.41
2022-09-03T23:45:40.280Z,98259.08
2022-09-03T23:48:18.863Z,98260.33
2022-09-03T23:50:56.555Z,98260.66
2022-09-03T23:53:32.333Z,98260.33
2022-09-03T23:56:14.407Z,98265.95
2022-09-03T23:58:57.920Z,98260.23
